Etusivu
METAR-TAF:

METAR-TAF

Lentoasemat :

Trollhättan-Vänersborg, Ruotsi

Leveyspiiri: 58-19N, Pituuspiiri: 012-21E, korkeus merenpinnasta: 41 m

Tämänhetkinen sää

Tämä raportti tehtiin 29 minuuttia sitten, kello 10.20 UTC
Tuuli 9 kn etelästä/kaakosta
Lämpötila 5°C
Kosteus 87%
Ilmanpaine 1000 hPa
Näkyvyys: 9000 m
Hajonneita pilviä 1500 ft:n korkeudessa
sadetta

METAR: ESGT 121020Z 15009KT 9000 RA BKN015 05/03 Q1000

Aika: 11:49 (10:49 UTC)

Sääennuste

Tämä raportti tehtiin 2 tuntia ja 19 minuuttia sitten, kello 08.30 UTC
Ennuste voimassa 12. päivästä klo 09 UTC - 12. päivään klo 18 UTC
Tuuli 8 kn kaakosta
Näkyvyys 10 km tai enemmän
Hajonneita pilviä 2000 ft:n korkeudessa
Todennäköisyys 40%
12. päivästä klo 09 UTC - 12. päivään klo 18 UTC
Hajonneita pilviä 800 ft:n korkeudessa
Hajonneita pilviä 1500 ft:n korkeudessa, Kasvava cumulus-pilvi.
vesikuuroja

TAF: ESGT 120830Z 1209/1218 13008KT 9999 BKN020 PROB40 1209/1218 SHRA BKN008 BKN015TCU

Säähavainnot ja -ennusteet yli 4000 lentoasemalta (METAR- ja TAF-raportit).

Käytössä olevat sääasemat on merkitty karttaan keltaisilla ja punaisilla pisteillä.

Aseta hiiri pisteen päälle nähdäksesi sääaseman nimen.

Klikkaa sitten nähdäksesi säähavainnot ja -ennusteet.

Kartan vaihtaminen: klikkaa mustalla rastilla varustettuja vihreitä pisteitä, niin voit zoomata sisään; viivalla varustettua vihreää pistettä, niin voit zoomata ulos tai vihreitä nuolia, niin pääset viereisille kartoille.


METAR-TAF: